createdAt,value
2017-11-26T00:01:37.340Z,2.80
2017-11-26T00:04:03.927Z,2.80
2017-11-26T00:06:30.642Z,2.80
2017-11-26T00:08:57.264Z,2.80
2017-11-26T00:11:23.799Z,2.80
2017-11-26T00:13:57.842Z,2.80
2017-11-26T00:16:24.646Z,2.80
2017-11-26T00:18:51.482Z,2.80
2017-11-26T00:21:18.383Z,2.80
2017-11-26T00:23:45.307Z,2.80
2017-11-26T00:26:11.896Z,2.80
2017-11-26T00:28:38.517Z,2.80
2017-11-26T00:31:05.487Z,2.70
2017-11-26T00:33:32.409Z,2.60
2017-11-26T00:35:59.011Z,2.60
2017-11-26T00:38:25.548Z,2.60
2017-11-26T00:40:52.149Z,2.50
2017-11-26T00:43:18.878Z,2.40
2017-11-26T00:45:45.652Z,2.40
2017-11-26T00:48:12.199Z,2.40
2017-11-26T00:50:38.812Z,2.30
2017-11-26T00:53:05.359Z,2.40
2017-11-26T00:55:31.899Z,2.40
2017-11-26T00:57:58.847Z,2.30
2017-11-26T01:00:25.400Z,2.40
2017-11-26T01:02:51.952Z,2.40
2017-11-26T01:05:18.560Z,2.40
2017-11-26T01:07:45.104Z,2.30
2017-11-26T01:10:18.801Z,2.30
2017-11-26T01:12:45.346Z,2.40
2017-11-26T01:15:12.264Z,2.40
2017-11-26T01:17:38.885Z,2.40
2017-11-26T01:20:05.816Z,2.40
2017-11-26T01:22:38.443Z,2.40
2017-11-26T01:25:05.402Z,2.40
2017-11-26T01:27:32.388Z,2.40
2017-11-26T01:29:58.994Z,2.40
2017-11-26T01:32:25.946Z,2.30
2017-11-26T01:34:52.494Z,2.30
2017-11-26T01:37:19.480Z,2.10
2017-11-26T01:39:46.093Z,2.10
2017-11-26T01:42:13.040Z,2.00
2017-11-26T01:44:39.729Z,2.00
2017-11-26T01:47:06.339Z,2.00
2017-11-26T01:49:32.907Z,2.00
2017-11-26T01:51:59.940Z,1.80
2017-11-26T01:54:26.527Z,1.80
2017-11-26T01:56:53.093Z,1.70
2017-11-26T01:59:19.710Z,1.70
2017-11-26T02:01:46.323Z,1.80
2017-11-26T02:04:12.934Z,1.80
2017-11-26T02:06:39.603Z,1.80
2017-11-26T02:09:06.603Z,1.70
2017-11-26T02:11:33.210Z,1.70
2017-11-26T02:14:00.252Z,1.70
2017-11-26T02:16:26.847Z,1.70
2017-11-26T02:18:53.431Z,1.80
2017-11-26T02:21:20.102Z,1.70
2017-11-26T02:23:46.729Z,1.70
2017-11-26T02:26:13.355Z,1.60
2017-11-26T02:28:40.038Z,1.50
2017-11-26T02:31:18.804Z,1.50
2017-11-26T02:33:56.996Z,1.40
2017-11-26T02:36:23.605Z,1.40
2017-11-26T02:38:50.215Z,1.30
2017-11-26T02:41:17.365Z,1.20
2017-11-26T02:43:44.016Z,1.20
2017-11-26T02:46:10.679Z,1.10
2017-11-26T02:48:37.707Z,1.10
2017-11-26T02:51:04.343Z,1.10
2017-11-26T02:53:30.964Z,1.00
2017-11-26T02:55:57.688Z,0.90
2017-11-26T02:58:24.691Z,0.90
2017-11-26T03:00:51.296Z,0.90
2017-11-26T03:03:18.269Z,0.90
2017-11-26T03:05:44.812Z,0.90
2017-11-26T03:08:11.391Z,0.90
2017-11-26T03:10:38.006Z,0.90
2017-11-26T03:13:04.560Z,0.90
2017-11-26T03:15:31.182Z,1.00
2017-11-26T03:17:58.208Z,1.00
2017-11-26T03:20:24.857Z,1.00
2017-11-26T03:22:51.415Z,1.00
2017-11-26T03:25:18.036Z,1.00
2017-11-26T03:27:44.651Z,1.10
2017-11-26T03:30:11.311Z,1.10
2017-11-26T03:32:37.975Z,1.10
2017-11-26T03:35:04.625Z,1.10
2017-11-26T03:37:31.191Z,1.10
2017-11-26T03:39:57.848Z,1.10
2017-11-26T03:42:24.499Z,1.10
2017-11-26T03:44:51.253Z,1.10
2017-11-26T03:47:17.889Z,1.10
2017-11-26T03:49:44.462Z,1.20
2017-11-26T03:52:11.075Z,1.20
2017-11-26T03:54:37.951Z,1.20
2017-11-26T03:57:04.504Z,1.20
2017-11-26T03:59:31.064Z,1.20
2017-11-26T04:01:57.695Z,1.30
2017-11-26T04:04:24.262Z,1.30
2017-11-26T04:06:50.843Z,1.30
2017-11-26T04:09:24.574Z,1.30
2017-11-26T04:11:51.131Z,1.30
2017-11-26T04:14:17.693Z,1.40
2017-11-26T04:16:44.376Z,1.40
2017-11-26T04:19:11.295Z,1.40
2017-11-26T04:21:37.911Z,1.40
2017-11-26T04:24:04.529Z,1.40
2017-11-26T04:26:31.128Z,1.40
2017-11-26T04:28:57.691Z,1.40
2017-11-26T04:31:24.306Z,1.40
2017-11-26T04:33:50.917Z,1.50
2017-11-26T04:36:17.871Z,1.50
2017-11-26T04:38:51.732Z,1.50
2017-11-26T04:41:18.295Z,1.50
2017-11-26T04:43:44.875Z,1.60
2017-11-26T04:46:11.539Z,1.60
2017-11-26T04:48:38.092Z,1.60
2017-11-26T04:51:05.084Z,1.50
2017-11-26T04:53:31.798Z,1.50
2017-11-26T04:55:58.810Z,1.50
2017-11-26T04:58:25.381Z,1.50
2017-11-26T05:00:52.075Z,1.50
2017-11-26T05:03:18.699Z,1.50
2017-11-26T05:05:45.706Z,1.60
2017-11-26T05:08:12.355Z,1.60
2017-11-26T05:10:38.953Z,1.50
2017-11-26T05:13:05.556Z,1.50
2017-11-26T05:15:32.196Z,1.40
2017-11-26T05:17:58.747Z,1.40
2017-11-26T05:20:25.306Z,1.40
2017-11-26T05:22:51.904Z,1.40
2017-11-26T05:25:18.853Z,1.40
2017-11-26T05:27:45.439Z,1.40
2017-11-26T05:30:12.194Z,1.40
2017-11-26T05:32:38.778Z,1.40
2017-11-26T05:35:05.384Z,1.40
2017-11-26T05:37:32.087Z,1.40
2017-11-26T05:39:58.779Z,1.40
2017-11-26T05:42:25.381Z,1.40
2017-11-26T05:44:52.008Z,1.50
2017-11-26T05:47:18.591Z,1.40
2017-11-26T05:49:45.217Z,1.40
2017-11-26T05:52:11.827Z,1.40
2017-11-26T05:54:38.379Z,1.40
2017-11-26T05:57:05.062Z,1.30
2017-11-26T05:59:31.711Z,1.20
2017-11-26T06:01:58.294Z,1.20
2017-11-26T06:04:25.236Z,1.20
2017-11-26T06:06:51.876Z,1.20
2017-11-26T06:09:18.448Z,1.10
2017-11-26T06:11:45.375Z,1.10
2017-11-26T06:14:12.034Z,1.20
2017-11-26T06:16:38.601Z,1.20
2017-11-26T06:19:05.527Z,1.20
2017-11-26T06:21:32.231Z,1.20
2017-11-26T06:23:58.803Z,1.10
2017-11-26T06:26:25.371Z,1.10
2017-11-26T06:28:51.972Z,1.10
2017-11-26T06:33:51.736Z,1.10
2017-11-26T06:36:18.338Z,1.10
2017-11-26T06:38:45.344Z,1.10
2017-11-26T06:41:12.024Z,1.10
2017-11-26T06:43:38.632Z,1.10
2017-11-26T06:46:05.287Z,1.10
2017-11-26T06:48:31.919Z,1.10
2017-11-26T06:50:58.563Z,1.10
2017-11-26T06:53:25.498Z,1.10
2017-11-26T06:55:52.128Z,1.10
2017-11-26T06:58:18.733Z,1.10
2017-11-26T07:00:45.289Z,1.20
2017-11-26T07:03:11.916Z,1.10
2017-11-26T07:05:38.551Z,1.10
2017-11-26T07:08:05.507Z,1.20
2017-11-26T07:10:32.556Z,1.20
2017-11-26T07:12:59.185Z,1.20
2017-11-26T07:15:25.784Z,1.20
2017-11-26T07:17:52.513Z,1.20
2017-11-26T07:20:19.092Z,1.20
2017-11-26T07:22:45.646Z,1.10
2017-11-26T07:25:12.294Z,1.10
2017-11-26T07:27:38.860Z,1.10
2017-11-26T07:30:05.439Z,1.10
2017-11-26T07:32:32.071Z,1.20
2017-11-26T07:34:58.653Z,1.20
2017-11-26T07:37:32.668Z,1.20
2017-11-26T07:39:59.603Z,1.20
2017-11-26T07:42:26.151Z,1.20
2017-11-26T07:44:52.746Z,1.10
2017-11-26T07:47:19.320Z,1.20
2017-11-26T07:49:45.876Z,1.20
2017-11-26T07:52:12.475Z,1.20
2017-11-26T07:54:39.402Z,1.10
2017-11-26T07:57:05.955Z,1.10
2017-11-26T07:59:32.577Z,1.10
2017-11-26T08:01:59.117Z,1.10
2017-11-26T08:04:25.653Z,1.10
2017-11-26T08:06:52.284Z,1.10
2017-11-26T08:09:18.840Z,1.20
2017-11-26T08:11:45.395Z,1.20
2017-11-26T08:14:11.996Z,1.30
2017-11-26T08:16:38.537Z,1.40
2017-11-26T08:19:05.109Z,1.60
2017-11-26T08:21:32.108Z,1.60
2017-11-26T08:23:58.675Z,1.70
2017-11-26T08:26:25.232Z,1.60
2017-11-26T08:28:51.876Z,1.70
2017-11-26T08:31:18.427Z,1.70
2017-11-26T08:33:44.994Z,1.70
2017-11-26T08:36:11.982Z,1.80
2017-11-26T08:38:38.547Z,1.80
2017-11-26T08:41:05.147Z,1.80
2017-11-26T08:43:32.171Z,1.90
2017-11-26T08:45:58.822Z,1.80
2017-11-26T08:48:25.476Z,1.90
2017-11-26T08:50:52.156Z,1.90
2017-11-26T08:53:19.142Z,2.00
2017-11-26T08:55:45.743Z,2.00
2017-11-26T08:58:12.507Z,2.00
2017-11-26T09:00:39.508Z,2.00
2017-11-26T09:03:06.186Z,2.00
2017-11-26T09:05:32.911Z,2.10
2017-11-26T09:08:01.532Z,2.20
2017-11-26T09:10:28.124Z,2.20
2017-11-26T09:12:54.824Z,2.20
2017-11-26T09:15:21.479Z,2.20
2017-11-26T09:17:48.072Z,2.20
2017-11-26T09:20:15.097Z,2.20
2017-11-26T09:22:41.830Z,2.20
2017-11-26T09:25:08.463Z,2.20
2017-11-26T09:27:35.149Z,2.20
2017-11-26T09:30:01.755Z,2.20
2017-11-26T09:32:28.309Z,2.20
2017-11-26T09:34:54.915Z,2.30
2017-11-26T09:37:21.852Z,2.40
2017-11-26T09:39:48.472Z,2.40
2017-11-26T09:42:15.120Z,2.50
2017-11-26T09:44:41.749Z,2.50
2017-11-26T09:47:08.455Z,2.60
2017-11-26T09:49:35.092Z,2.70
2017-11-26T09:52:01.709Z,2.60
2017-11-26T09:54:28.257Z,2.70
2017-11-26T09:56:54.848Z,2.70
2017-11-26T09:59:21.399Z,2.60
2017-11-26T10:01:47.940Z,2.70
2017-11-26T10:04:14.555Z,2.70
2017-11-26T10:06:41.109Z,2.80
2017-11-26T10:09:07.664Z,2.80
2017-11-26T10:11:34.411Z,2.80
2017-11-26T10:14:00.964Z,2.90
2017-11-26T10:16:27.532Z,2.90
2017-11-26T10:18:54.148Z,2.90
2017-11-26T10:21:20.690Z,2.80
2017-11-26T10:23:47.355Z,2.90
2017-11-26T10:26:14.209Z,2.80
2017-11-26T10:28:40.858Z,2.90
2017-11-26T10:31:07.434Z,2.90
2017-11-26T10:33:34.593Z,3.00
2017-11-26T10:36:01.200Z,2.90
2017-11-26T10:38:27.756Z,3.00
2017-11-26T10:40:54.585Z,3.10
2017-11-26T10:43:21.246Z,3.10
2017-11-26T10:45:47.873Z,3.10
2017-11-26T10:48:14.559Z,3.20
2017-11-26T10:50:41.188Z,3.20
2017-11-26T10:53:07.805Z,3.20
2017-11-26T10:55:34.855Z,3.10
2017-11-26T10:58:01.832Z,3.20
2017-11-26T11:00:28.454Z,3.20
2017-11-26T11:02:55.627Z,3.30
2017-11-26T11:05:22.615Z,3.30
2017-11-26T11:07:49.251Z,3.30
2017-11-26T11:10:16.146Z,3.20
2017-11-26T11:12:42.897Z,3.20
2017-11-26T11:15:09.624Z,3.10
2017-11-26T11:17:36.452Z,3.10
2017-11-26T11:20:03.050Z,3.00
2017-11-26T11:22:29.655Z,3.00
2017-11-26T11:24:57.078Z,2.90
2017-11-26T11:27:23.692Z,2.80
2017-11-26T11:29:50.255Z,2.60
2017-11-26T11:32:17.192Z,2.50
2017-11-26T11:34:43.739Z,2.40
2017-11-26T11:37:10.319Z,2.60
2017-11-26T11:39:43.927Z,2.80
2017-11-26T11:42:11.323Z,3.00
2017-11-26T11:44:38.257Z,3.10
2017-11-26T11:47:04.871Z,3.10
2017-11-26T11:49:31.637Z,3.10
2017-11-26T11:51:58.406Z,3.10
2017-11-26T11:54:25.469Z,3.10
2017-11-26T11:56:52.523Z,3.20
2017-11-26T11:59:19.158Z,3.20
2017-11-26T12:01:45.860Z,3.20
2017-11-26T12:04:12.888Z,3.20
2017-11-26T12:06:39.519Z,3.20
2017-11-26T12:09:06.385Z,3.20
2017-11-26T12:11:33.055Z,3.20
2017-11-26T12:13:59.640Z,3.20
2017-11-26T12:16:26.315Z,3.30
2017-11-26T12:18:53.264Z,3.20
2017-11-26T12:21:20.757Z,3.20
2017-11-26T12:23:47.480Z,3.20
2017-11-26T12:26:14.103Z,3.10
2017-11-26T12:28:40.731Z,3.10
2017-11-26T12:31:07.495Z,3.00
2017-11-26T12:33:34.495Z,2.90
2017-11-26T12:36:01.165Z,2.90
2017-11-26T12:38:28.020Z,2.90
2017-11-26T12:40:54.619Z,2.80
2017-11-26T12:43:21.244Z,2.60
2017-11-26T12:45:48.354Z,2.50
2017-11-26T12:48:15.126Z,2.50
2017-11-26T12:50:41.981Z,2.60
2017-11-26T12:53:08.647Z,2.60
2017-11-26T12:55:35.270Z,2.60
2017-11-26T12:58:02.219Z,2.60
2017-11-26T13:00:28.887Z,2.60
2017-11-26T13:02:55.512Z,2.60
2017-11-26T13:05:22.139Z,2.60
2017-11-26T13:07:48.910Z,2.60
2017-11-26T13:10:15.528Z,2.60
2017-11-26T13:12:42.543Z,2.70
2017-11-26T13:15:09.244Z,2.70
2017-11-26T13:17:35.928Z,2.70
2017-11-26T13:20:02.698Z,2.70
2017-11-26T13:22:29.383Z,2.70
2017-11-26T13:24:56.507Z,2.70
2017-11-26T13:27:23.122Z,2.70
2017-11-26T13:29:49.852Z,2.80
2017-11-26T13:32:16.484Z,2.80
2017-11-26T13:34:43.474Z,3.00
2017-11-26T13:37:10.171Z,3.00
2017-11-26T13:39:36.784Z,3.00
2017-11-26T13:42:03.439Z,2.80
2017-11-26T13:44:30.191Z,2.80
2017-11-26T13:46:56.815Z,2.80
2017-11-26T13:49:23.513Z,2.80
2017-11-26T13:51:50.180Z,2.90
2017-11-26T13:54:16.848Z,2.90
2017-11-26T13:56:44.356Z,2.90
2017-11-26T13:59:11.032Z,2.90
2017-11-26T14:01:37.782Z,2.90
2017-11-26T14:04:04.534Z,2.80
2017-11-26T14:06:31.286Z,2.80
2017-11-26T14:08:57.936Z,2.80
2017-11-26T14:11:24.571Z,2.80
2017-11-26T14:13:51.310Z,2.70
2017-11-26T14:16:17.939Z,2.70
2017-11-26T14:18:44.634Z,2.70
2017-11-26T14:21:11.384Z,2.70
2017-11-26T14:23:38.017Z,2.80
2017-11-26T14:26:04.639Z,2.80
2017-11-26T14:28:31.763Z,2.80
2017-11-26T14:30:58.498Z,2.70
2017-11-26T14:33:25.124Z,2.70
2017-11-26T14:35:59.616Z,2.70
2017-11-26T14:38:26.636Z,2.60
2017-11-26T14:40:53.276Z,2.60
2017-11-26T14:43:20.039Z,2.50
2017-11-26T14:45:46.667Z,2.60
2017-11-26T14:48:13.280Z,2.50
2017-11-26T14:50:39.998Z,2.50
2017-11-26T14:53:06.624Z,2.40
2017-11-26T14:55:33.248Z,2.30
2017-11-26T14:57:59.942Z,2.20
2017-11-26T15:00:26.659Z,2.20
2017-11-26T15:02:53.289Z,2.10
2017-11-26T15:05:20.024Z,2.00
2017-11-26T15:07:47.047Z,2.00
2017-11-26T15:10:13.689Z,2.00
2017-11-26T15:12:40.444Z,2.00
2017-11-26T15:15:07.196Z,2.00
2017-11-26T15:17:33.823Z,2.00
2017-11-26T15:20:00.507Z,2.00
2017-11-26T15:22:27.220Z,2.00
2017-11-26T15:24:53.840Z,2.00
2017-11-26T15:27:21.000Z,1.90
2017-11-26T15:29:48.010Z,1.90
2017-11-26T15:32:14.707Z,1.90
2017-11-26T15:34:41.487Z,1.80
2017-11-26T15:37:08.120Z,1.90
2017-11-26T15:39:34.736Z,1.80
2017-11-26T15:42:01.467Z,1.80
2017-11-26T15:44:28.113Z,1.80
2017-11-26T15:46:54.768Z,1.80
2017-11-26T15:49:21.555Z,1.80
2017-11-26T15:51:48.608Z,1.70
2017-11-26T15:54:15.596Z,1.70
2017-11-26T15:56:42.263Z,1.70
2017-11-26T15:59:08.881Z,1.60
2017-11-26T16:01:35.903Z,1.50
2017-11-26T16:04:02.628Z,1.50
2017-11-26T16:06:29.276Z,1.50
2017-11-26T16:08:55.887Z,1.60
2017-11-26T16:11:22.957Z,1.40
2017-11-26T16:13:49.683Z,1.40
2017-11-26T16:16:16.783Z,1.30
2017-11-26T16:18:43.472Z,1.30
2017-11-26T16:21:10.100Z,1.30
2017-11-26T16:23:36.690Z,1.30
2017-11-26T16:26:03.730Z,1.30
2017-11-26T16:28:30.369Z,1.30
2017-11-26T16:30:57.012Z,1.40
2017-11-26T16:33:23.694Z,1.50
2017-11-26T16:35:50.800Z,1.50
2017-11-26T16:38:17.425Z,1.60
2017-11-26T16:40:44.112Z,1.60
2017-11-26T16:43:10.755Z,1.60
2017-11-26T16:45:37.379Z,1.50
2017-11-26T16:48:04.083Z,1.50
2017-11-26T16:50:30.757Z,1.50
2017-11-26T16:52:57.719Z,1.30
2017-11-26T16:55:24.756Z,1.00
2017-11-26T16:57:51.362Z,1.00
2017-11-26T17:00:19.036Z,0.80
2017-11-26T17:02:46.350Z,0.70
2017-11-26T17:05:13.027Z,0.50
2017-11-26T17:07:39.666Z,0.40
2017-11-26T17:10:06.341Z,0.30
2017-11-26T17:12:32.964Z,0.40
2017-11-26T17:14:59.636Z,0.40
2017-11-26T17:17:26.358Z,0.40
2017-11-26T17:19:53.343Z,0.50
2017-11-26T17:22:19.963Z,0.50
2017-11-26T17:24:47.028Z,0.50
2017-11-26T17:27:13.675Z,0.50
2017-11-26T17:29:40.711Z,0.60
2017-11-26T17:32:07.400Z,0.60
2017-11-26T17:34:34.031Z,0.70
2017-11-26T17:37:01.040Z,0.70
2017-11-26T17:39:27.728Z,0.70
2017-11-26T17:41:54.689Z,0.70
2017-11-26T17:44:21.727Z,0.70
2017-11-26T17:46:48.396Z,0.70
2017-11-26T17:49:15.405Z,0.70
2017-11-26T17:51:42.059Z,0.60
2017-11-26T17:54:08.747Z,0.60
2017-11-26T17:56:35.756Z,0.40
2017-11-26T17:59:02.850Z,0.40
2017-11-26T18:01:29.933Z,0.30
2017-11-26T18:03:56.955Z,0.30
2017-11-26T18:06:23.518Z,0.30
2017-11-26T18:08:50.218Z,0.20
2017-11-26T18:11:16.865Z,0.20
2017-11-26T18:13:43.440Z,0.10
2017-11-26T18:16:10.169Z,0.20
2017-11-26T18:18:36.928Z,0.20
2017-11-26T18:21:03.484Z,0.20
2017-11-26T18:23:30.183Z,0.30
2017-11-26T18:25:56.844Z,0.30
2017-11-26T18:28:23.755Z,0.40
2017-11-26T18:30:50.388Z,0.40
2017-11-26T18:33:16.945Z,0.40
2017-11-26T18:35:43.498Z,0.50
2017-11-26T18:38:10.187Z,0.40
2017-11-26T18:40:37.097Z,0.50
2017-11-26T18:43:03.650Z,0.50
2017-11-26T18:45:30.288Z,0.50
2017-11-26T18:47:56.923Z,0.40
2017-11-26T18:50:23.470Z,0.40
2017-11-26T18:52:50.302Z,0.40
2017-11-26T18:55:16.882Z,0.40
2017-11-26T18:57:43.445Z,0.50
2017-11-26T19:00:10.081Z,0.50
2017-11-26T19:02:37.466Z,0.40
2017-11-26T19:05:04.536Z,0.40
2017-11-26T19:07:31.929Z,0.40
2017-11-26T19:09:58.876Z,0.40
2017-11-26T19:12:25.866Z,0.50
2017-11-26T19:14:52.533Z,0.50
2017-11-26T19:17:19.095Z,0.50
2017-11-26T19:19:45.652Z,0.50
2017-11-26T19:22:13.276Z,0.50
2017-11-26T19:24:39.879Z,0.60
2017-11-26T19:27:06.450Z,0.70
2017-11-26T19:29:33.114Z,0.60
2017-11-26T19:31:59.667Z,0.70
2017-11-26T19:34:26.766Z,0.70
2017-11-26T19:36:53.554Z,0.70
2017-11-26T19:39:21.506Z,0.80
2017-11-26T19:41:48.919Z,0.80
2017-11-26T19:44:15.544Z,0.80
2017-11-26T19:46:43.124Z,0.80
2017-11-26T19:49:10.213Z,0.70
2017-11-26T19:51:36.857Z,0.70
2017-11-26T19:54:03.531Z,0.70
2017-11-26T19:56:30.183Z,0.70
2017-11-26T19:58:58.483Z,0.60
2017-11-26T20:01:25.083Z,0.60
2017-11-26T20:03:52.636Z,0.60
2017-11-26T20:06:19.743Z,0.50
2017-11-26T20:08:46.346Z,0.50
2017-11-26T20:11:13.323Z,0.50
2017-11-26T20:13:40.741Z,0.50
2017-11-26T20:16:07.295Z,0.50
2017-11-26T20:18:34.836Z,0.50
2017-11-26T20:21:01.431Z,0.50
2017-11-26T20:23:28.352Z,0.40
2017-11-26T20:25:54.955Z,0.40
2017-11-26T20:28:21.627Z,0.40
2017-11-26T20:30:48.191Z,0.40
2017-11-26T20:33:14.739Z,0.40
2017-11-26T20:35:41.691Z,0.40
2017-11-26T20:38:08.243Z,0.40
2017-11-26T20:40:35.220Z,0.40
2017-11-26T20:43:01.839Z,0.50
2017-11-26T20:45:29.181Z,0.50
2017-11-26T20:47:56.445Z,0.50
2017-11-26T20:50:23.052Z,0.50
2017-11-26T20:52:49.676Z,0.50
2017-11-26T20:55:16.234Z,0.40
2017-11-26T20:57:43.901Z,0.50
2017-11-26T21:00:10.517Z,0.50
2017-11-26T21:02:37.081Z,0.50
2017-11-26T21:05:03.707Z,0.50
2017-11-26T21:07:30.295Z,0.50
2017-11-26T21:09:56.844Z,0.50
2017-11-26T21:12:23.501Z,0.50
2017-11-26T21:14:50.110Z,0.60
2017-11-26T21:17:16.716Z,0.60
2017-11-26T21:19:43.353Z,0.50
2017-11-26T21:22:10.960Z,0.60
2017-11-26T21:24:37.568Z,0.60
2017-11-26T21:27:04.175Z,0.60
2017-11-26T21:29:30.727Z,0.50
2017-11-26T21:31:57.275Z,0.50
2017-11-26T21:34:23.886Z,0.50
2017-11-26T21:36:50.798Z,0.60
2017-11-26T21:39:17.351Z,0.60
2017-11-26T21:41:43.972Z,0.50
2017-11-26T21:44:10.532Z,0.50
2017-11-26T21:46:37.080Z,0.60
2017-11-26T21:49:03.776Z,0.60
2017-11-26T21:51:30.715Z,0.70
2017-11-26T21:53:57.425Z,0.60
2017-11-26T21:56:29.120Z,0.60
2017-11-26T21:58:56.959Z,0.60
2017-11-26T22:01:23.512Z,0.60
2017-11-26T22:03:50.143Z,0.60
2017-11-26T22:06:16.703Z,0.50
2017-11-26T22:08:43.260Z,0.50
2017-11-26T22:11:09.862Z,0.50
2017-11-26T22:13:36.418Z,0.60
2017-11-26T22:16:03.404Z,0.60
2017-11-26T22:18:30.024Z,0.60
2017-11-26T22:20:57.001Z,0.50
2017-11-26T22:23:23.581Z,0.50
2017-11-26T22:25:50.231Z,0.50
2017-11-26T22:28:16.810Z,0.50
2017-11-26T22:30:43.372Z,0.50
2017-11-26T22:33:11.340Z,0.60
2017-11-26T22:35:37.896Z,0.60
2017-11-26T22:38:04.819Z,0.60
2017-11-26T22:40:31.436Z,0.60
2017-11-26T22:42:58.008Z,0.60
2017-11-26T22:45:24.592Z,0.70
2017-11-26T22:47:51.196Z,0.60
2017-11-26T22:50:17.740Z,0.60
2017-11-26T22:52:44.304Z,0.60
2017-11-26T22:55:10.971Z,0.70
2017-11-26T22:57:37.531Z,0.70
2017-11-26T23:00:04.188Z,0.70
2017-11-26T23:02:31.195Z,0.70
2017-11-26T23:04:57.759Z,0.70
2017-11-26T23:07:24.331Z,0.70
2017-11-26T23:09:50.956Z,0.70
2017-11-26T23:12:17.507Z,0.70
2017-11-26T23:14:44.064Z,0.80
2017-11-26T23:17:10.681Z,0.70
2017-11-26T23:19:37.248Z,0.70
2017-11-26T23:22:03.816Z,0.70
2017-11-26T23:24:30.543Z,0.70
2017-11-26T23:26:57.097Z,0.80
2017-11-26T23:29:23.643Z,0.80
2017-11-26T23:31:50.252Z,0.80
2017-11-26T23:34:16.802Z,0.80
2017-11-26T23:36:43.347Z,0.80
2017-11-26T23:39:09.968Z,0.80
2017-11-26T23:41:36.888Z,0.80
2017-11-26T23:44:03.466Z,0.80
2017-11-26T23:46:30.536Z,0.80
2017-11-26T23:48:57.482Z,0.90
2017-11-26T23:51:24.407Z,0.80
2017-11-26T23:53:51.100Z,0.90
2017-11-26T23:56:18.071Z,0.80
2017-11-26T23:58:44.678Z,0.80
